Time;durP1;ratioP1;P1;durP2;ratioP2;P2;SDS_P1;SDS_P2;PMS_P1;PMS_P2;Temp;Humidity;BMP_temperature;BMP_pressure;BME280_temperature;BME280_humidity;BME280_pressure;Samples;Min_cycle;Max_cycle;Signal;HPM_P1;HPM_P2
2022/05/08 00:02:19;;;;;;;;;;;14.70;99.90;;;;;;7348793;19;108914;-82
2022/05/08 00:04:50;;;;;;;;;;;14.50;99.90;;;;;;7354798;19;108996;-81
2022/05/08 00:07:17;;;;;;;;;;;14.50;99.90;;;;;;7347097;19;107714;-82
2022/05/08 00:09:44;;;;;;;;;;;14.40;99.90;;;;;;7346984;19;109902;-82
2022/05/08 00:12:11;;;;;;;;;;;14.40;99.90;;;;;;7350016;19;107322;-82
2022/05/08 00:14:38;;;;;;;;;;;14.40;99.90;;;;;;7347832;19;106834;-82
2022/05/08 00:17:05;;;;;;;;;;;14.30;99.90;;;;;;7348396;19;108720;-82
2022/05/08 00:19:33;;;;;;;;;;;14.30;99.90;;;;;;7348578;19;107286;-82
2022/05/08 00:21:59;;;;;;;;;;;14.30;99.90;;;;;;7349419;19;108238;-82
2022/05/08 00:24:46;;;;;;;;;;;14.20;99.90;;;;;;7347912;19;111242;-82
2022/05/08 00:27:13;;;;;;;;;;;14.20;99.90;;;;;;7354247;19;107069;-82
2022/05/08 00:29:40;;;;;;;;;;;14.30;99.90;;;;;;7347323;19;109007;-82
2022/05/08 00:32:08;;;;;;;;;;;14.20;99.90;;;;;;7346476;19;107297;-82
2022/05/08 00:34:34;;;;;;;;;;;14.30;99.90;;;;;;7347336;19;108135;-81
2022/05/08 00:37:01;;;;;;;;;;;14.30;99.90;;;;;;7347704;19;111565;-82
2022/05/08 00:39:28;;;;;;;;;;;14.40;99.90;;;;;;7343809;19;107385;-82
2022/05/08 00:41:55;;;;;;;;;;;14.40;99.90;;;;;;7348036;19;108979;-82
2022/05/08 00:44:22;;;;;;;;;;;14.40;99.90;;;;;;7348230;19;108979;-81
2022/05/08 00:46:49;;;;;;;;;;;14.40;99.90;;;;;;7346887;19;107366;-81
2022/05/08 00:49:16;;;;;;;;;;;14.40;99.90;;;;;;7350590;19;107874;-82
2022/05/08 00:51:47;;;;;;;;;;;14.30;99.90;;;;;;7348401;19;107084;-81
2022/05/08 00:54:14;;;;;;;;;;;14.20;99.90;;;;;;7348461;19;108904;-82
2022/05/08 00:56:41;;;;;;;;;;;14.10;99.90;;;;;;7346859;19;108970;-82
2022/05/08 00:59:09;;;;;;;;;;;14.00;99.90;;;;;;7348838;19;107941;-82
2022/05/08 01:01:36;;;;;;;;;;;13.90;99.90;;;;;;7347830;19;107454;-82
2022/05/08 01:04:04;;;;;;;;;;;13.80;99.90;;;;;;7346086;19;109413;-82
2022/05/08 01:06:32;;;;;;;;;;;13.70;99.90;;;;;;7342871;19;107171;-81
2022/05/08 01:08:59;;;;;;;;;;;13.70;99.90;;;;;;7340838;19;108495;-82
2022/05/08 01:11:26;;;;;;;;;;;13.70;99.90;;;;;;7351962;19;112087;-82
2022/05/08 01:13:53;;;;;;;;;;;13.60;99.90;;;;;;7347042;19;107862;-82
2022/05/08 01:16:20;;;;;;;;;;;13.60;99.90;;;;;;7341570;19;108719;-82
2022/05/08 01:18:48;;;;;;;;;;;13.60;99.90;;;;;;7345735;19;107094;-82
2022/05/08 01:21:22;;;;;;;;;;;13.60;99.90;;;;;;7346987;19;108004;-81
2022/05/08 01:23:49;;;;;;;;;;;13.60;99.90;;;;;;7345752;19;108021;-81
2022/05/08 01:26:19;;;;;;;;;;;13.60;99.90;;;;;;7346771;19;107425;-82
2022/05/08 01:28:46;;;;;;;;;;;13.60;99.90;;;;;;7346146;19;109652;-82
2022/05/08 01:31:13;;;;;;;;;;;13.70;99.90;;;;;;7344410;19;108962;-82
2022/05/08 01:33:40;;;;;;;;;;;13.60;99.90;;;;;;7350761;19;107391;-82
2022/05/08 01:36:07;;;;;;;;;;;13.60;99.90;;;;;;7346390;19;108902;-81
2022/05/08 01:38:34;;;;;;;;;;;13.60;99.90;;;;;;7345064;19;107248;-83
2022/05/08 01:41:04;;;;;;;;;;;13.50;99.90;;;;;;7346164;19;107895;-82
2022/05/08 01:43:34;;;;;;;;;;;13.50;99.90;;;;;;7345834;19;107983;-82
2022/05/08 01:46:02;;;;;;;;;;;13.50;99.90;;;;;;7344945;19;107271;-81
2022/05/08 01:48:30;;;;;;;;;;;13.50;99.90;;;;;;7346254;19;106999;-82
2022/05/08 01:50:58;;;;;;;;;;;13.60;99.90;;;;;;7341615;19;109723;-82
2022/05/08 01:53:26;;;;;;;;;;;13.70;99.90;;;;;;7347041;19;107888;-81
2022/05/08 01:55:54;;;;;;;;;;;13.80;99.90;;;;;;7350348;19;111154;-82
2022/05/08 01:58:25;;;;;;;;;;;13.90;99.90;;;;;;7342999;19;107078;-82
2022/05/08 02:00:53;;;;;;;;;;;13.90;99.90;;;;;;7346456;19;107374;-82
2022/05/08 02:03:21;;;;;;;;;;;13.90;99.90;;;;;;7345314;19;109374;-82
2022/05/08 02:05:48;;;;;;;;;;;13.90;99.90;;;;;;7345180;19;108549;-81
2022/05/08 02:08:15;;;;;;;;;;;13.80;99.90;;;;;;7345104;19;108408;-82
2022/05/08 02:10:42;;;;;;;;;;;13.80;99.90;;;;;;7342779;19;108992;-82
2022/05/08 02:13:09;;;;;;;;;;;13.70;99.90;;;;;;7343746;19;107089;-81
2022/05/08 02:15:36;;;;;;;;;;;13.70;99.90;;;;;;7346140;19;107933;-81
2022/05/08 02:18:05;;;;;;;;;;;13.70;99.90;;;;;;7340344;19;107101;-81
2022/05/08 02:20:32;;;;;;;;;;;13.60;99.90;;;;;;7344364;19;107273;-81
2022/05/08 02:22:59;;;;;;;;;;;13.70;99.90;;;;;;7343581;19;108972;-82
2022/05/08 02:25:26;;;;;;;;;;;13.60;99.90;;;;;;7345867;19;107075;-81
2022/05/08 02:27:54;;;;;;;;;;;13.60;99.90;;;;;;7344179;19;107262;-82
2022/05/08 02:30:22;;;;;;;;;;;13.50;99.90;;;;;;7341615;19;108755;-82
2022/05/08 02:32:51;;;;;;;;;;;13.50;99.90;;;;;;7344911;19;107084;-82
2022/05/08 02:35:20;;;;;;;;;;;13.50;99.90;;;;;;7344729;19;108249;-82
2022/05/08 02:37:52;;;;;;;;;;;13.40;99.90;;;;;;7349564;19;109805;-82
2022/05/08 02:40:19;;;;;;;;;;;13.40;99.90;;;;;;7342232;19;107853;-82
2022/05/08 02:42:46;;;;;;;;;;;13.40;99.90;;;;;;7345047;19;112253;-82
2022/05/08 02:45:13;;;;;;;;;;;13.40;99.90;;;;;;7345018;19;107277;-82
2022/05/08 02:47:41;;;;;;;;;;;13.40;99.90;;;;;;7342562;19;109794;-82
2022/05/08 02:50:11;;;;;;;;;;;13.50;99.90;;;;;;7342703;19;108137;-81
2022/05/08 02:52:39;;;;;;;;;;;13.50;99.90;;;;;;7341681;19;107778;-82
2022/05/08 03:00:38;;;;;;;;;;;13.40;99.90;;;;;;7349589;19;107133;-82
2022/05/08 03:03:06;;;;;;;;;;;13.40;99.90;;;;;;7344494;19;108771;-81
2022/05/08 03:05:34;;;;;;;;;;;13.30;99.90;;;;;;7344909;19;107175;-81
2022/05/08 03:08:01;;;;;;;;;;;13.30;99.90;;;;;;7343769;19;107499;-82
2022/05/08 03:10:28;;;;;;;;;;;13.30;99.90;;;;;;7340583;19;109028;-81
2022/05/08 03:12:55;;;;;;;;;;;13.30;99.90;;;;;;7342399;19;107006;-82
2022/05/08 03:15:23;;;;;;;;;;;13.20;99.90;;;;;;7339657;19;107602;-82
2022/05/08 03:17:50;;;;;;;;;;;13.20;99.90;;;;;;7340954;19;108862;-82
2022/05/08 03:20:18;;;;;;;;;;;13.10;99.90;;;;;;7341891;19;107320;-82
2022/05/08 03:22:45;;;;;;;;;;;13.10;99.90;;;;;;7347942;19;108584;-82
2022/05/08 03:25:12;;;;;;;;;;;13.00;99.90;;;;;;7341941;19;107174;-82
2022/05/08 03:27:39;;;;;;;;;;;13.00;99.90;;;;;;7343662;19;106935;-82
2022/05/08 03:30:06;;;;;;;;;;;12.90;99.90;;;;;;7342757;19;109634;-82
2022/05/08 03:32:33;;;;;;;;;;;12.90;99.90;;;;;;7348488;19;107402;-82
2022/05/08 03:35:00;;;;;;;;;;;12.90;99.90;;;;;;7346260;19;110992;-82
2022/05/08 03:37:27;;;;;;;;;;;12.80;99.90;;;;;;7348710;19;109509;-81
2022/05/08 03:39:54;;;;;;;;;;;12.80;99.90;;;;;;7347858;19;107470;-82
2022/05/08 03:42:22;;;;;;;;;;;12.80;99.90;;;;;;7346121;19;110389;-82
2022/05/08 03:44:48;;;;;;;;;;;12.80;99.90;;;;;;7350188;19;109179;-81
2022/05/08 03:47:15;;;;;;;;;;;12.70;99.90;;;;;;7345265;19;108176;-82
2022/05/08 03:49:42;;;;;;;;;;;12.70;99.90;;;;;;7346928;19;108935;-82
2022/05/08 03:52:09;;;;;;;;;;;12.70;99.90;;;;;;7345534;19;107361;-82
2022/05/08 03:54:36;;;;;;;;;;;12.70;99.90;;;;;;7346874;19;108069;-82
2022/05/08 03:57:03;;;;;;;;;;;12.60;99.90;;;;;;7345674;19;108118;-82
2022/05/08 03:59:31;;;;;;;;;;;12.70;99.90;;;;;;7344935;19;107536;-82
2022/05/08 04:01:58;;;;;;;;;;;12.70;99.90;;;;;;7344169;19;107320;-82
2022/05/08 04:04:25;;;;;;;;;;;12.60;99.90;;;;;;7345778;19;108258;-81
2022/05/08 04:06:52;;;;;;;;;;;12.60;99.90;;;;;;7352354;19;106997;-82
2022/05/08 04:09:18;;;;;;;;;;;12.50;99.90;;;;;;7345202;19;109223;-82
2022/05/08 04:11:45;;;;;;;;;;;12.50;99.90;;;;;;7344099;19;107281;-81
2022/05/08 04:14:12;;;;;;;;;;;12.50;99.90;;;;;;7346469;19;108003;-82
2022/05/08 04:16:39;;;;;;;;;;;12.50;99.90;;;;;;7343777;19;108861;-82
2022/05/08 04:19:06;;;;;;;;;;;12.40;99.90;;;;;;7345257;19;107441;-81
2022/05/08 04:21:33;;;;;;;;;;;12.40;99.90;;;;;;7345152;19;107648;-82
2022/05/08 04:24:18;;;;;;;;;;;12.50;99.90;;;;;;7344620;19;112544;-82
2022/05/08 04:26:46;;;;;;;;;;;12.50;99.90;;;;;;7352350;19;108825;-82
2022/05/08 04:29:13;;;;;;;;;;;12.50;99.90;;;;;;7343692;19;108986;-81
2022/05/08 04:31:40;;;;;;;;;;;12.50;99.90;;;;;;7344400;19;107104;-82
2022/05/08 04:34:07;;;;;;;;;;;12.40;99.90;;;;;;7346585;19;107867;-82
2022/05/08 04:36:34;;;;;;;;;;;12.50;99.90;;;;;;7346098;19;110640;-82
2022/05/08 04:39:01;;;;;;;;;;;12.50;99.90;;;;;;7154576;19;3638309;-82
2022/05/08 04:41:28;;;;;;;;;;;12.50;99.90;;;;;;7346091;19;109412;-81
2022/05/08 04:44:00;;;;;;;;;;;12.50;99.90;;;;;;7347064;19;109009;-83
2022/05/08 04:46:28;;;;;;;;;;;12.50;99.90;;;;;;7345621;19;107271;-81
2022/05/08 04:48:54;;;;;;;;;;;12.50;99.90;;;;;;7352191;19;107065;-82
2022/05/08 04:51:21;;;;;;;;;;;12.50;99.90;;;;;;7346352;19;107400;-81
2022/05/08 04:53:48;;;;;;;;;;;12.60;99.90;;;;;;7345550;19;110115;-81
2022/05/08 04:56:15;;;;;;;;;;;12.50;99.90;;;;;;7347570;19;111388;-82
2022/05/08 04:58:42;;;;;;;;;;;12.60;99.90;;;;;;7346184;19;107548;-82
2022/05/08 05:01:10;;;;;;;;;;;12.50;99.90;;;;;;7345246;19;107862;-82
2022/05/08 05:03:37;;;;;;;;;;;12.60;99.90;;;;;;7346129;19;109361;-82
2022/05/08 05:06:04;;;;;;;;;;;12.60;99.90;;;;;;7346526;19;107572;-82
2022/05/08 05:08:31;;;;;;;;;;;12.60;99.90;;;;;;7347091;19;107936;-81
2022/05/08 05:10:58;;;;;;;;;;;12.50;99.90;;;;;;7351451;19;111853;-81
2022/05/08 05:13:25;;;;;;;;;;;12.50;99.90;;;;;;7347054;19;108847;-82
2022/05/08 05:15:52;;;;;;;;;;;12.50;99.90;;;;;;7343821;19;107990;-81
2022/05/08 05:18:19;;;;;;;;;;;12.50;99.90;;;;;;7346209;19;107103;-81
2022/05/08 05:20:46;;;;;;;;;;;12.40;99.90;;;;;;7345076;19;108422;-82
2022/05/08 05:23:13;;;;;;;;;;;12.50;99.90;;;;;;7344767;19;109083;-82
2022/05/08 05:25:40;;;;;;;;;;;12.50;99.90;;;;;;7347321;19;107248;-81
2022/05/08 05:28:06;;;;;;;;;;;12.50;99.90;;;;;;7344455;19;107148;-82
2022/05/08 05:30:35;;;;;;;;;;;12.50;99.90;;;;;;7345229;19;110270;-82
2022/05/08 05:33:02;;;;;;;;;;;12.60;99.90;;;;;;7349734;19;107310;-82
2022/05/08 05:35:29;;;;;;;;;;;12.60;99.90;;;;;;7345505;19;108017;-82
2022/05/08 05:37:56;;;;;;;;;;;12.60;99.90;;;;;;7345378;19;107432;-81
2022/05/08 05:40:23;;;;;;;;;;;12.50;99.90;;;;;;7345742;19;109023;-81
2022/05/08 05:42:51;;;;;;;;;;;12.50;99.90;;;;;;7344734;19;108468;-82
2022/05/08 05:45:18;;;;;;;;;;;12.60;99.90;;;;;;7345427;19;107504;-81
2022/05/08 05:47:52;;;;;;;;;;;12.60;99.90;;;;;;7345970;19;107883;-82
2022/05/08 05:50:20;;;;;;;;;;;12.50;99.90;;;;;;7344796;19;109109;-81
2022/05/08 05:52:48;;;;;;;;;;;12.50;99.90;;;;;;7345717;19;107701;-82
2022/05/08 05:55:15;;;;;;;;;;;12.50;99.90;;;;;;7351750;19;106900;-82
2022/05/08 05:57:42;;;;;;;;;;;12.50;99.90;;;;;;7345323;19;107266;-82
2022/05/08 06:00:13;;;;;;;;;;;12.60;99.90;;;;;;7346398;19;108066;-82
2022/05/08 06:02:42;;;;;;;;;;;12.50;99.90;;;;;;7346329;19;108255;-82
2022/05/08 06:05:12;;;;;;;;;;;12.50;99.90;;;;;;7345075;19;107502;-82
2022/05/08 06:07:40;;;;;;;;;;;12.50;99.90;;;;;;7346579;19;107723;-83
2022/05/08 06:10:07;;;;;;;;;;;12.50;99.90;;;;;;7344396;19;108933;-82
2022/05/08 06:12:34;;;;;;;;;;;12.50;99.90;;;;;;7344450;19;107733;-83
2022/05/08 06:15:02;;;;;;;;;;;12.50;99.90;;;;;;7349649;19;111168;-82
2022/05/08 06:17:29;;;;;;;;;;;12.60;99.90;;;;;;7343454;19;107152;-81
2022/05/08 06:19:56;;;;;;;;;;;12.60;99.90;;;;;;7344324;19;111019;-82
2022/05/08 06:22:24;;;;;;;;;;;12.60;99.90;;;;;;7345165;19;109011;-81
2022/05/08 06:24:50;;;;;;;;;;;12.60;99.90;;;;;;7344065;19;107067;-82
2022/05/08 06:27:17;;;;;;;;;;;12.70;99.90;;;;;;7345085;19;107908;-82
2022/05/08 06:29:44;;;;;;;;;;;12.60;99.90;;;;;;7344996;19;108989;-81
2022/05/08 06:32:11;;;;;;;;;;;12.60;99.90;;;;;;7341321;19;110060;-82
2022/05/08 06:34:38;;;;;;;;;;;12.60;99.90;;;;;;7344288;19;108136;-82
2022/05/08 06:37:05;;;;;;;;;;;12.70;99.90;;;;;;7348908;19;111261;-82
2022/05/08 06:39:34;;;;;;;;;;;12.70;99.90;;;;;;7342266;19;110041;-82
2022/05/08 06:42:01;;;;;;;;;;;12.90;99.90;;;;;;7342248;19;109221;-82
2022/05/08 06:44:28;;;;;;;;;;;13.00;99.90;;;;;;7345340;19;107099;-82
2022/05/08 06:46:55;;;;;;;;;;;13.10;99.90;;;;;;7344877;19;111416;-82
2022/05/08 06:49:22;;;;;;;;;;;13.10;99.90;;;;;;7341141;19;109084;-82
2022/05/08 06:51:49;;;;;;;;;;;13.10;99.90;;;;;;7340576;19;107920;-82
2022/05/08 06:54:16;;;;;;;;;;;13.10;99.90;;;;;;7344361;19;108057;-83
2022/05/08 06:56:44;;;;;;;;;;;13.10;99.90;;;;;;7343164;19;109685;-83
2022/05/08 07:01:56;;;;;;;;;;;13.20;99.90;;;;;;7344048;19;108950;-83
2022/05/08 07:04:24;;;;;;;;;;;13.30;99.90;;;;;;7344390;19;106877;-85
2022/05/08 07:06:52;;;;;;;;;;;13.30;99.90;;;;;;7347696;19;110693;-85
2022/05/08 07:09:19;;;;;;;;;;;13.30;99.90;;;;;;7347887;19;108732;-85
2022/05/08 07:11:47;;;;;;;;;;;13.40;99.90;;;;;;7345905;19;107268;-88
2022/05/08 07:14:15;;;;;;;;;;;13.60;99.90;;;;;;7348898;19;108782;-85
2022/05/08 07:16:42;;;;;;;;;;;13.70;99.90;;;;;;7351189;19;109220;-87
2022/05/08 07:19:10;;;;;;;;;;;13.90;99.90;;;;;;7349263;19;107267;-89
2022/05/08 07:21:37;;;;;;;;;;;13.90;99.90;;;;;;7357406;19;107411;-88
2022/05/08 07:24:04;;;;;;;;;;;13.90;99.90;;;;;;7353198;19;107319;-89
2022/05/08 07:26:31;;;;;;;;;;;14.00;99.90;;;;;;7352392;19;107166;-89
2022/05/08 07:28:58;;;;;;;;;;;14.20;99.90;;;;;;7349938;19;110219;-89
2022/05/08 07:31:25;;;;;;;;;;;14.30;99.90;;;;;;7352338;19;107367;-88
2022/05/08 07:36:38;;;;;;;;;;;14.40;99.90;;;;;;7352283;19;108908;-92
2022/05/08 07:39:05;;;;;;;;;;;14.60;99.90;;;;;;7350961;19;106909;-91
2022/05/08 07:41:32;;;;;;;;;;;14.80;99.90;;;;;;7352759;19;107279;-91
2022/05/08 07:43:59;;;;;;;;;;;14.80;99.50;;;;;;7358713;19;107998;-90
2022/05/08 07:46:26;;;;;;;;;;;14.90;99.20;;;;;;7350909;19;108237;-87
2022/05/08 07:48:53;;;;;;;;;;;14.90;99.90;;;;;;7350047;19;109095;-87
2022/05/08 07:51:21;;;;;;;;;;;15.10;98.70;;;;;;7351184;19;107334;-91
2022/05/08 07:53:49;;;;;;;;;;;15.00;97.90;;;;;;7352359;19;110019;-90
2022/05/08 07:56:16;;;;;;;;;;;15.10;99.00;;;;;;7351663;19;110898;-91
2022/05/08 07:58:43;;;;;;;;;;;15.20;99.30;;;;;;7352783;19;107005;-89
2022/05/08 08:01:10;;;;;;;;;;;15.30;98.80;;;;;;7352571;19;107368;-89
2022/05/08 08:03:37;;;;;;;;;;;15.50;98.40;;;;;;7348544;19;108043;-88
2022/05/08 08:06:04;;;;;;;;;;;15.50;98.50;;;;;;7354553;19;107507;-88
2022/05/08 08:08:34;;;;;;;;;;;15.70;98.30;;;;;;7349930;19;108939;-90
2022/05/08 08:11:03;;;;;;;;;;;15.70;96.80;;;;;;7350216;19;107635;-89
2022/05/08 08:13:32;;;;;;;;;;;15.50;97.00;;;;;;7350516;19;107411;-88
2022/05/08 08:16:00;;;;;;;;;;;15.50;96.50;;;;;;7345733;19;109189;-88
2022/05/08 08:18:27;;;;;;;;;;;15.50;96.40;;;;;;7349937;19;107959;-92
2022/05/08 08:20:58;;;;;;;;;;;15.60;96.90;;;;;;7355617;19;108241;-93
2022/05/08 08:23:27;;;;;;;;;;;15.70;97.40;;;;;;7353905;19;109047;-90
2022/05/08 08:25:54;;;;;;;;;;;15.80;95.80;;;;;;7355842;19;106917;-88
2022/05/08 08:28:21;;;;;;;;;;;15.80;95.80;;;;;;7347222;19;108844;-88
2022/05/08 08:30:48;;;;;;;;;;;15.80;95.20;;;;;;7349889;19;107391;-87
2022/05/08 08:33:15;;;;;;;;;;;15.80;95.80;;;;;;7347416;19;107999;-86
2022/05/08 08:35:42;;;;;;;;;;;15.90;96.20;;;;;;7345733;19;108629;-86
2022/05/08 08:38:09;;;;;;;;;;;15.90;95.60;;;;;;7344072;19;108260;-86
2022/05/08 08:40:39;;;;;;;;;;;16.00;96.60;;;;;;7347511;19;108335;-87
2022/05/08 08:43:09;;;;;;;;;;;16.20;95.10;;;;;;7348229;19;111504;-85
2022/05/08 08:48:27;;;;;;;;;;;16.10;94.50;;;;;;7350854;19;110586;-87
2022/05/08 08:50:57;;;;;;;;;;;16.30;95.20;;;;;;7344338;19;108766;-86
2022/05/08 08:53:25;;;;;;;;;;;16.30;93.90;;;;;;7344985;19;108453;-86
2022/05/08 08:55:52;;;;;;;;;;;16.20;94.80;;;;;;7345836;19;108961;-87
2022/05/08 08:58:20;;;;;;;;;;;16.40;94.30;;;;;;7344083;19;107451;-86
2022/05/08 09:00:49;;;;;;;;;;;16.50;94.10;;;;;;7346269;19;108176;-87
2022/05/08 09:03:28;;;;;;;;;;;16.60;94.30;;;;;;7346482;19;108537;-87
2022/05/08 09:05:59;;;;;;;;;;;16.70;93.80;;;;;;7345620;19;107913;-86
2022/05/08 09:08:31;;;;;;;;;;;16.90;93.10;;;;;;7345322;19;108430;-84
2022/05/08 09:10:58;;;;;;;;;;;16.80;92.10;;;;;;7353253;19;108300;-86
2022/05/08 09:13:28;;;;;;;;;;;16.80;92.20;;;;;;7345308;19;108056;-84
2022/05/08 09:16:05;;;;;;;;;;;16.90;92.20;;;;;;7344221;19;109063;-84
2022/05/08 09:18:45;;;;;;;;;;;17.00;93.40;;;;;;7341024;19;107244;-84
2022/05/08 09:24:09;;;;;;;;;;;17.20;92.60;;;;;;7347800;19;108345;-82
2022/05/08 09:26:36;;;;;;;;;;;17.20;92.30;;;;;;7344422;19;107624;-82
2022/05/08 09:29:04;;;;;;;;;;;17.20;92.90;;;;;;7339762;19;107925;-82
2022/05/08 09:31:38;;;;;;;;;;;17.20;92.20;;;;;;7342540;19;108963;-83
2022/05/08 09:34:09;;;;;;;;;;;17.30;92.60;;;;;;7349862;19;107494;-83
2022/05/08 09:36:36;;;;;;;;;;;17.30;92.30;;;;;;7346434;19;108169;-82
2022/05/08 09:39:03;;;;;;;;;;;17.40;91.70;;;;;;7342312;19;109094;-83
2022/05/08 09:41:31;;;;;;;;;;;17.30;92.20;;;;;;7346330;19;108528;-81
2022/05/08 09:44:09;;;;;;;;;;;17.50;91.00;;;;;;7345790;19;108978;-81
2022/05/08 09:46:36;;;;;;;;;;;17.40;89.30;;;;;;7348006;19;108096;-83
2022/05/08 09:49:05;;;;;;;;;;;17.50;90.00;;;;;;7347516;19;108326;-84
2022/05/08 09:51:33;;;;;;;;;;;17.60;90.60;;;;;;7346608;19;108806;-84
2022/05/08 09:54:00;;;;;;;;;;;17.60;90.00;;;;;;7347007;19;107113;-82
2022/05/08 09:56:28;;;;;;;;;;;17.60;88.30;;;;;;7352921;19;107821;-83
2022/05/08 09:58:55;;;;;;;;;;;17.60;88.30;;;;;;7350384;19;107282;-81
2022/05/08 10:01:24;;;;;;;;;;;17.70;88.80;;;;;;7348178;19;107908;-83
2022/05/08 10:03:52;;;;;;;;;;;17.80;90.50;;;;;;7348658;19;108983;-83
2022/05/08 10:06:19;;;;;;;;;;;18.00;90.00;;;;;;7346887;19;107436;-82
2022/05/08 10:08:47;;;;;;;;;;;18.00;88.60;;;;;;7348594;19;108045;-82
2022/05/08 10:14:11;;;;;;;;;;;18.10;89.50;;;;;;7344463;19;107293;-82
2022/05/08 10:16:50;;;;;;;;;;;18.20;88.60;;;;;;7345908;19;108009;-82
2022/05/08 10:19:17;;;;;;;;;;;18.20;88.70;;;;;;7352262;19;108897;-79
2022/05/08 10:22:12;;;;;;;;;;;18.20;88.60;;;;;;7346443;19;107771;-81
2022/05/08 10:24:47;;;;;;;;;;;18.20;88.40;;;;;;7344766;19;109249;-82
2022/05/08 10:27:17;;;;;;;;;;;18.20;88.40;;;;;;7343431;19;110137;-81
2022/05/08 10:29:50;;;;;;;;;;;18.30;90.00;;;;;;7346247;19;107848;-81
2022/05/08 10:35:15;;;;;;;;;;;18.80;90.50;;;;;;7347146;19;107127;-81
2022/05/08 10:37:52;;;;;;;;;;;18.90;90.00;;;;;;7342045;19;107773;-82
2022/05/08 10:40:22;;;;;;;;;;;19.00;89.00;;;;;;7349136;19;108544;-82
2022/05/08 10:42:54;;;;;;;;;;;19.00;89.70;;;;;;7349726;19;107864;-82
2022/05/08 10:45:31;;;;;;;;;;;19.10;87.30;;;;;;7349313;19;108460;-81
2022/05/08 10:48:01;;;;;;;;;;;19.30;87.00;;;;;;7350112;19;108547;-83
2022/05/08 10:50:28;;;;;;;;;;;19.40;86.70;;;;;;7351827;19;113610;-85
2022/05/08 10:52:57;;;;;;;;;;;19.40;85.70;;;;;;7348584;19;108869;-85
2022/05/08 10:55:24;;;;;;;;;;;19.40;84.90;;;;;;7351198;19;107171;-86
2022/05/08 10:57:52;;;;;;;;;;;19.40;86.90;;;;;;7351082;19;106996;-85
2022/05/08 11:00:20;;;;;;;;;;;19.50;85.10;;;;;;7349686;19;108812;-86
2022/05/08 11:02:54;;;;;;;;;;;19.60;82.60;;;;;;7355605;19;108364;-86
2022/05/08 11:05:27;;;;;;;;;;;19.60;82.80;;;;;;7350630;19;108519;-87
2022/05/08 11:07:56;;;;;;;;;;;19.50;80.90;;;;;;7349804;19;108000;-87
2022/05/08 11:10:27;;;;;;;;;;;19.30;76.30;;;;;;7349104;19;107873;-86
2022/05/08 11:13:04;;;;;;;;;;;19.30;77.90;;;;;;7348525;19;109079;-85
2022/05/08 11:15:35;;;;;;;;;;;19.40;82.10;;;;;;7347910;19;107615;-85
2022/05/08 11:18:07;;;;;;;;;;;19.60;79.70;;;;;;7349334;19;107815;-85
2022/05/08 11:20:38;;;;;;;;;;;19.70;78.50;;;;;;7349245;19;109046;-84
2022/05/08 11:23:06;;;;;;;;;;;19.80;79.70;;;;;;7345010;19;107692;-87
2022/05/08 11:25:33;;;;;;;;;;;19.80;76.20;;;;;;7354819;19;107992;-83
2022/05/08 11:28:00;;;;;;;;;;;19.80;78.90;;;;;;7349576;19;107082;-87
2022/05/08 11:30:32;;;;;;;;;;;19.90;79.60;;;;;;7351185;19;108575;-88
2022/05/08 11:36:05;;;;;;;;;;;19.90;76.00;;;;;;7350867;19;107125;-86
2022/05/08 11:38:45;;;;;;;;;;;19.90;76.40;;;;;;7349715;19;107832;-88
2022/05/08 11:41:16;;;;;;;;;;;19.90;76.50;;;;;;7346950;19;109732;-89
2022/05/08 11:43:44;;;;;;;;;;;20.00;77.90;;;;;;7350662;19;107270;-87
2022/05/08 11:46:15;;;;;;;;;;;20.10;76.80;;;;;;7348777;19;107747;-88
2022/05/08 11:48:50;;;;;;;;;;;20.20;76.00;;;;;;7354261;19;108944;-86
2022/05/08 11:51:21;;;;;;;;;;;20.40;76.70;;;;;;7349202;19;109763;-90
2022/05/08 11:53:49;;;;;;;;;;;20.40;71.00;;;;;;7347159;19;108911;-89
2022/05/08 11:56:21;;;;;;;;;;;20.50;73.90;;;;;;7348092;19;107424;-90
2022/05/08 11:58:47;;;;;;;;;;;20.70;75.50;;;;;;7350644;19;108256;-89
2022/05/08 12:01:24;;;;;;;;;;;20.80;73.70;;;;;;7348256;19;109270;-90
2022/05/08 12:03:51;;;;;;;;;;;20.80;70.50;;;;;;7350086;19;108093;-90
2022/05/08 12:06:18;;;;;;;;;;;20.80;68.20;;;;;;7348882;19;108211;-90
2022/05/08 12:08:52;;;;;;;;;;;20.80;68.40;;;;;;7349634;19;108592;-90
2022/05/08 12:11:28;;;;;;;;;;;20.90;72.10;;;;;;7356160;19;107038;-91
2022/05/08 12:13:58;;;;;;;;;;;21.00;73.00;;;;;;7348547;19;110729;-89
2022/05/08 12:16:26;;;;;;;;;;;21.10;72.50;;;;;;7350065;19;107390;-89
2022/05/08 12:19:09;;;;;;;;;;;21.20;71.80;;;;;;7349143;19;107382;-89
2022/05/08 12:21:40;;;;;;;;;;;21.30;71.70;;;;;;7347881;19;108278;-91
2022/05/08 12:24:08;;;;;;;;;;;21.20;69.70;;;;;;7350621;19;107199;-89
2022/05/08 12:26:35;;;;;;;;;;;21.40;71.60;;;;;;7348699;19;108788;-90
2022/05/08 12:29:05;;;;;;;;;;;21.50;69.40;;;;;;7350563;19;112240;-92
2022/05/08 12:31:32;;;;;;;;;;;21.50;70.40;;;;;;7350392;19;108262;-91
2022/05/08 12:33:59;;;;;;;;;;;21.70;69.60;;;;;;7349727;19;108285;-88
2022/05/08 12:36:26;;;;;;;;;;;21.90;69.80;;;;;;7337438;19;107625;-91
2022/05/08 12:38:53;;;;;;;;;;;22.00;69.10;;;;;;7343125;19;108200;-89
2022/05/08 12:41:20;;;;;;;;;;;22.20;67.20;;;;;;7346480;19;109680;-89
2022/05/08 12:43:47;;;;;;;;;;;22.20;69.30;;;;;;7346109;19;107596;-88
2022/05/08 12:46:14;;;;;;;;;;;22.30;66.20;;;;;;7345995;19;107860;-89
2022/05/08 12:48:41;;;;;;;;;;;22.40;66.90;;;;;;7342820;19;108036;-89
2022/05/08 12:51:08;;;;;;;;;;;22.40;68.10;;;;;;7345071;19;107664;-89
2022/05/08 12:53:35;;;;;;;;;;;22.50;64.10;;;;;;7349426;19;108299;-91
2022/05/08 12:56:03;;;;;;;;;;;22.40;66.70;;;;;;7345494;19;107848;-88
2022/05/08 13:01:15;;;;;;;;;;;22.60;63.80;;;;;;7347772;19;109306;-91
2022/05/08 13:03:42;;;;;;;;;;;22.80;63.70;;;;;;7342602;19;107576;-89
2022/05/08 13:06:09;;;;;;;;;;;22.90;64.00;;;;;;7342169;19;107393;-90
2022/05/08 13:08:36;;;;;;;;;;;23.00;64.30;;;;;;7344684;19;109086;-91
2022/05/08 13:11:03;;;;;;;;;;;22.90;61.60;;;;;;7341768;19;107873;-90
2022/05/08 13:13:37;;;;;;;;;;;22.90;63.20;;;;;;7345830;19;107014;-90
2022/05/08 13:16:05;;;;;;;;;;;23.00;63.20;;;;;;7348382;19;109064;-90
2022/05/08 13:18:32;;;;;;;;;;;22.90;62.20;;;;;;7344797;19;107421;-90
2022/05/08 13:20:59;;;;;;;;;;;23.00;64.00;;;;;;7341240;19;108869;-92
2022/05/08 13:23:25;;;;;;;;;;;22.90;60.30;;;;;;7343564;19;107073;-92
2022/05/08 13:25:52;;;;;;;;;;;23.00;64.90;;;;;;7341333;19;110769;-88
2022/05/08 13:28:19;;;;;;;;;;;23.30;60.40;;;;;;7340828;19;109716;-90
2022/05/08 13:30:46;;;;;;;;;;;23.40;63.80;;;;;;7347406;19;107605;-88
2022/05/08 13:33:13;;;;;;;;;;;23.60;60.80;;;;;;7347755;19;107079;-88
2022/05/08 13:35:40;;;;;;;;;;;23.60;60.80;;;;;;7347422;19;111766;-90
2022/05/08 13:38:07;;;;;;;;;;;23.50;59.40;;;;;;7351337;19;107702;-87
2022/05/08 13:40:34;;;;;;;;;;;23.50;62.00;;;;;;7346120;19;111362;-87
2022/05/08 13:43:01;;;;;;;;;;;23.50;61.10;;;;;;7347425;19;107172;-87
2022/05/08 13:45:28;;;;;;;;;;;23.70;61.40;;;;;;7347047;19;108188;-89
2022/05/08 13:47:55;;;;;;;;;;;23.70;61.00;;;;;;7346568;19;110158;-90
2022/05/08 13:50:22;;;;;;;;;;;23.80;61.10;;;;;;7349408;19;107227;-89
2022/05/08 13:52:49;;;;;;;;;;;23.90;62.90;;;;;;7349560;19;107907;-88
2022/05/08 13:55:17;;;;;;;;;;;24.30;61.20;;;;;;7343039;19;108979;-87
2022/05/08 13:57:44;;;;;;;;;;;24.50;60.00;;;;;;7347096;19;107071;-87
2022/05/08 14:00:14;;;;;;;;;;;24.40;57.70;;;;;;7351545;19;108101;-89
2022/05/08 14:02:42;;;;;;;;;;;24.20;57.70;;;;;;7345847;19;107867;-93
2022/05/08 14:05:09;;;;;;;;;;;24.00;59.70;;;;;;7343866;19;107396;-89
2022/05/08 14:07:37;;;;;;;;;;;23.80;58.40;;;;;;7341783;19;109632;-87
2022/05/08 14:10:07;;;;;;;;;;;24.20;62.80;;;;;;7345102;19;107775;-88
2022/05/08 14:12:35;;;;;;;;;;;24.50;60.20;;;;;;7341807;19;108010;-88
2022/05/08 14:15:02;;;;;;;;;;;24.60;58.50;;;;;;7342332;19;109327;-87
2022/05/08 14:17:30;;;;;;;;;;;24.80;58.70;;;;;;7343005;19;107036;-87
2022/05/08 14:19:58;;;;;;;;;;;24.80;58.70;;;;;;7345802;19;108023;-89
2022/05/08 14:22:26;;;;;;;;;;;24.70;58.70;;;;;;7348524;19;108286;-87
2022/05/08 14:24:53;;;;;;;;;;;24.70;57.90;;;;;;7343452;19;108201;-89
2022/05/08 14:27:21;;;;;;;;;;;24.50;56.60;;;;;;7342116;19;109607;-88
2022/05/08 14:29:48;;;;;;;;;;;24.20;56.70;;;;;;7345716;19;107927;-90
2022/05/08 14:37:46;;;;;;;;;;;24.80;58.10;;;;;;7343631;19;107087;-89
2022/05/08 14:40:13;;;;;;;;;;;24.70;54.60;;;;;;7346209;19;108050;-92
2022/05/08 14:42:40;;;;;;;;;;;24.50;56.50;;;;;;7349417;19;109018;-90
2022/05/08 14:45:07;;;;;;;;;;;24.60;55.80;;;;;;7354174;19;106976;-92